ACA587 CYXE-CYVR
Flight info
| Callsign | ACA587 |
|---|---|
| Flight time | N/A |
| Altitude | 35000 |
| Route | OVATA DCT BORIX DCT SPRAE DCT BOOTH CANUC6 |
| Aircraft | A320/M-SDE3FGHIRWY/LB1 |
Departure
| Time | 2026-05-09 00:02 |
|---|---|
| Airport | Saskatoon John G. Diefenbaker International Airport (CYXE) |
Arrival
| Time | N/A |
|---|---|
| Airport | Vancouver International Airport (CYVR) |
| Time | Latitude | Longitude | Altitude | Speed | Heading |
|---|---|---|---|---|---|
| 2026-05-08 23:12 | 52.17022 | -106.69192 | 1650 ft | 0 kts | 157° |
| 2026-05-08 23:55 | 52.17023 | -106.69193 | 1650 ft | 2 kts | 157° |
| 2026-05-08 23:55 | 52.17043 | -106.69206 | 1650 ft | 4 kts | 156° |
| 2026-05-08 23:55 | 52.17063 | -106.69221 | 1650 ft | 4 kts | 155° |
| 2026-05-08 23:56 | 52.17086 | -106.69243 | 1650 ft | 4 kts | 132° |
| 2026-05-08 23:56 | 52.17098 | -106.69278 | 1650 ft | 4 kts | 88° |
| 2026-05-08 23:56 | 52.17096 | -106.69300 | 1650 ft | 1 kts | 69° |
| 2026-05-08 23:56 | 52.17095 | -106.69303 | 1650 ft | 0 kts | 69° |
| 2026-05-08 23:58 | 52.17098 | -106.69293 | 1650 ft | 4 kts | 69° |
| 2026-05-08 23:58 | 52.17111 | -106.69238 | 1650 ft | 6 kts | 69° |
| 2026-05-08 23:59 | 52.17131 | -106.69158 | 1650 ft | 9 kts | 62° |
| 2026-05-08 23:59 | 52.17178 | -106.69076 | 1650 ft | 11 kts | 52° |
| 2026-05-08 23:59 | 52.17184 | -106.68947 | 1650 ft | 13 kts | 98° |
| 2026-05-08 23:59 | 52.17166 | -106.68794 | 1650 ft | 15 kts | 101° |
| 2026-05-09 00:00 | 52.17145 | -106.68620 | 1650 ft | 17 kts | 101° |
| 2026-05-09 00:00 | 52.17122 | -106.68428 | 1650 ft | 18 kts | 101° |
| 2026-05-09 00:00 | 52.17141 | -106.68293 | 1650 ft | 13 kts | 26° |
| 2026-05-09 00:00 | 52.17233 | -106.68256 | 1650 ft | 14 kts | 11° |
| 2026-05-09 00:01 | 52.17331 | -106.68223 | 1650 ft | 15 kts | 11° |
| 2026-05-09 00:01 | 52.17426 | -106.68269 | 1649 ft | 16 kts | 301° |
| 2026-05-09 00:01 | 52.17456 | -106.68499 | 1649 ft | 41 kts | 281° |
| 2026-05-09 00:01 | 52.17570 | -106.69465 | 1651 ft | 129 kts | 281° |
| 2026-05-09 00:02 | 52.17770 | -106.71227 | 1882 ft | 173 kts | 281° |
| 2026-05-09 00:02 | 52.17992 | -106.73197 | 2742 ft | 181 kts | 280° |
| 2026-05-09 00:02 | 52.18196 | -106.75317 | 3573 ft | 199 kts | 279° |
| 2026-05-09 00:02 | 52.18413 | -106.77682 | 4352 ft | 224 kts | 277° |
| 2026-05-09 00:03 | 52.18622 | -106.80309 | 5277 ft | 243 kts | 277° |
| 2026-05-09 00:03 | 52.18831 | -106.83008 | 6349 ft | 237 kts | 277° |
| 2026-05-09 00:03 | 52.19050 | -106.85672 | 7411 ft | 238 kts | 278° |
| 2026-05-09 00:03 | 52.19276 | -106.88306 | 8556 ft | 238 kts | 278° |
| 2026-05-09 00:04 | 52.19511 | -106.90967 | 9706 ft | 237 kts | 278° |
| 2026-05-09 00:04 | 52.19745 | -106.93712 | 10446 ft | 251 kts | 277° |
| 2026-05-09 00:04 | 52.19970 | -106.96601 | 11231 ft | 262 kts | 276° |
| 2026-05-09 00:04 | 52.19994 | -106.99781 | 11300 ft | 301 kts | 266° |
| 2026-05-09 00:05 | 52.19587 | -107.03328 | 11427 ft | 330 kts | 259° |
| 2026-05-09 00:05 | 52.19041 | -107.06925 | 12493 ft | 324 kts | 258° |
| 2026-05-09 00:05 | 52.18443 | -107.10444 | 13573 ft | 320 kts | 256° |
| 2026-05-09 00:05 | 52.17807 | -107.13948 | 13939 ft | 326 kts | 259° |
| 2026-05-09 00:06 | 52.17424 | -107.17559 | 13898 ft | 321 kts | 267° |
| 2026-05-09 00:06 | 52.17271 | -107.21164 | 13902 ft | 319 kts | 266° |
| 2026-05-09 00:06 | 52.16920 | -107.24742 | 14047 ft | 316 kts | 262° |
| 2026-05-09 00:06 | 52.16530 | -107.28169 | 15130 ft | 303 kts | 262° |
| 2026-05-09 00:07 | 52.16139 | -107.31597 | 15665 ft | 315 kts | 263° |
| 2026-05-09 00:07 | 52.15743 | -107.35166 | 16003 ft | 324 kts | 263° |
| 2026-05-09 00:07 | 52.15350 | -107.38804 | 16369 ft | 328 kts | 263° |
| 2026-05-09 00:07 | 52.14983 | -107.42471 | 16783 ft | 328 kts | 268° |
| 2026-05-09 00:08 | 52.14670 | -107.46159 | 17127 ft | 331 kts | 269° |
| 2026-05-09 00:08 | 52.14374 | -107.49831 | 17886 ft | 331 kts | 269° |
| 2026-05-09 00:08 | 52.14075 | -107.53555 | 18559 ft | 333 kts | 269° |
| 2026-05-09 00:08 | 52.13767 | -107.57308 | 19176 ft | 335 kts | 269° |
| 2026-05-09 00:09 | 52.13450 | -107.61077 | 19800 ft | 337 kts | 269° |
| 2026-05-09 00:09 | 52.13124 | -107.64871 | 20413 ft | 340 kts | 269° |
| 2026-05-09 00:09 | 52.12791 | -107.68689 | 21026 ft | 342 kts | 270° |
| 2026-05-09 00:09 | 52.12453 | -107.72537 | 21640 ft | 344 kts | 270° |
| 2026-05-09 00:10 | 52.12112 | -107.76410 | 22240 ft | 347 kts | 270° |
| 2026-05-09 00:10 | 52.11768 | -107.80311 | 22851 ft | 349 kts | 270° |
| 2026-05-09 00:10 | 52.11418 | -107.84237 | 23453 ft | 352 kts | 270° |
| 2026-05-09 00:10 | 52.11064 | -107.88194 | 23940 ft | 354 kts | 270° |
| 2026-05-09 00:11 | 52.10705 | -107.92180 | 24418 ft | 357 kts | 270° |
| 2026-05-09 00:11 | 52.10341 | -107.96187 | 24837 ft | 359 kts | 270° |
| 2026-05-09 00:11 | 52.09976 | -108.00225 | 25270 ft | 362 kts | 270° |
| 2026-05-09 00:11 | 52.09604 | -108.04292 | 25715 ft | 365 kts | 269° |
| 2026-05-09 00:12 | 52.09220 | -108.08382 | 26150 ft | 367 kts | 269° |
| 2026-05-09 00:12 | 52.08834 | -108.12423 | 26573 ft | 370 kts | 269° |
| 2026-05-09 00:12 | 52.08433 | -108.16562 | 27000 ft | 372 kts | 269° |
| 2026-05-09 00:12 | 52.08028 | -108.20723 | 27420 ft | 374 kts | 269° |
| 2026-05-09 00:13 | 52.07622 | -108.24905 | 27831 ft | 376 kts | 269° |
| 2026-05-09 00:13 | 52.07214 | -108.29109 | 28236 ft | 378 kts | 269° |
| 2026-05-09 00:13 | 52.06801 | -108.33345 | 28632 ft | 380 kts | 269° |
| 2026-05-09 00:13 | 52.06386 | -108.37595 | 29019 ft | 382 kts | 269° |
| 2026-05-09 00:14 | 52.05968 | -108.41872 | 29395 ft | 384 kts | 269° |
| 2026-05-09 00:14 | 52.05546 | -108.46175 | 29702 ft | 387 kts | 269° |
| 2026-05-09 00:14 | 52.05119 | -108.50504 | 30021 ft | 390 kts | 269° |
| 2026-05-09 00:14 | 52.04687 | -108.54865 | 30322 ft | 392 kts | 269° |
| 2026-05-09 00:15 | 52.04251 | -108.59239 | 30633 ft | 393 kts | 269° |
| 2026-05-09 00:15 | 52.03809 | -108.63627 | 30934 ft | 394 kts | 269° |
| 2026-05-09 00:15 | 52.03365 | -108.68032 | 31233 ft | 396 kts | 269° |
| 2026-05-09 00:15 | 52.02920 | -108.72441 | 31533 ft | 396 kts | 269° |
| 2026-05-09 00:16 | 52.02473 | -108.76840 | 31939 ft | 394 kts | 269° |
| 2026-05-09 00:16 | 52.02034 | -108.81172 | 32353 ft | 392 kts | 269° |
| 2026-05-09 00:16 | 52.01589 | -108.85525 | 32771 ft | 390 kts | 269° |
| 2026-05-09 00:16 | 52.01143 | -108.89858 | 33190 ft | 388 kts | 269° |
| 2026-05-09 00:17 | 52.00696 | -108.94173 | 33552 ft | 387 kts | 268° |
| 2026-05-09 00:17 | 52.00249 | -108.98478 | 33901 ft | 387 kts | 268° |
| 2026-05-09 00:17 | 51.99804 | -109.02775 | 34225 ft | 386 kts | 268° |
| 2026-05-09 00:17 | 51.99362 | -109.07071 | 34529 ft | 385 kts | 268° |
| 2026-05-09 00:18 | 51.98919 | -109.11353 | 34803 ft | 386 kts | 268° |
| 2026-05-09 00:18 | 51.98019 | -109.19847 | 34901 ft | 376 kts | 268° |
| 2026-05-09 00:19 | 51.97137 | -109.28156 | 34899 ft | 373 kts | 268° |
| 2026-05-09 00:19 | 51.96275 | -109.36376 | 34898 ft | 372 kts | 268° |
| 2026-05-09 00:20 | 51.95395 | -109.44646 | 34896 ft | 372 kts | 268° |
| 2026-05-09 00:20 | 51.94505 | -109.52921 | 34892 ft | 372 kts | 268° |
| 2026-05-09 00:21 | 51.93604 | -109.61181 | 34893 ft | 372 kts | 268° |
| 2026-05-09 00:21 | 51.92704 | -109.69448 | 34891 ft | 372 kts | 268° |
| 2026-05-09 00:22 | 51.91800 | -109.77719 | 34894 ft | 377 kts | 268° |
| 2026-05-09 00:22 | 51.90872 | -109.86061 | 34908 ft | 370 kts | 268° |
| 2026-05-09 00:22 | 51.90416 | -109.90009 | 34948 ft | 352 kts | 267° |